Bell City, Louisiana
Current Conditions -  °F | °C
As of 10:50 AM on Saturday 20 Dec 2014 (Local Time) from KCWF Reporting Station
Overcast Overcast  
Wind Chill: 45°   Ceiling: 700
Heat Index: 48°   Visibility: 10mi
Dew Point: 46°   Wind: 7mph
Humidity: 93%   Direction: 10°N
Pressure: 30.21"   Gusts: NA
Location:  30.11°N, 92.96°W
Report Text: KCWF 201650Z 01006KT 10SM OVC007 09/08 A3021
Loading
Personal Weather Stations






























Interactive Weather Map New forecast layout! Learn more

10-Day Weather Forecast

Advertisements
Track Severe Weather on mobile